sensor_id;sensor_type;location;lat;lon;timestamp;pressure;altitude;pressure_sealevel;temperature;humidity
32298;BME280;18782;48.984;8.548;2023-08-07T00:00:08;99836.41;;;13.24;96.58
32298;BME280;18782;48.984;8.548;2023-08-07T00:02:36;99839.00;;;13.25;96.34
32298;BME280;18782;48.984;8.548;2023-08-07T00:05:04;99840.72;;;13.23;96.48
32298;BME280;18782;48.984;8.548;2023-08-07T00:07:32;99851.94;;;13.22;97.10
32298;BME280;18782;48.984;8.548;2023-08-07T00:10:00;99848.41;;;13.20;95.51
32298;BME280;18782;48.984;8.548;2023-08-07T00:12:31;99840.63;;;13.17;95.36
32298;BME280;18782;48.984;8.548;2023-08-07T00:14:58;99847.59;;;13.21;94.31
32298;BME280;18782;48.984;8.548;2023-08-07T00:17:27;99853.66;;;13.25;95.22
32298;BME280;18782;48.984;8.548;2023-08-07T00:19:54;99850.19;;;13.23;93.94
32298;BME280;18782;48.984;8.548;2023-08-07T00:22:22;99852.78;;;13.24;94.56
32298;BME280;18782;48.984;8.548;2023-08-07T00:24:51;99855.28;;;13.18;94.23
32298;BME280;18782;48.984;8.548;2023-08-07T00:27:19;99853.53;;;13.16;94.61
32298;BME280;18782;48.984;8.548;2023-08-07T00:29:48;99843.22;;;13.17;94.55
32298;BME280;18782;48.984;8.548;2023-08-07T00:32:15;99848.31;;;13.13;94.79
32298;BME280;18782;48.984;8.548;2023-08-07T00:34:43;99842.34;;;13.18;93.93
32298;BME280;18782;48.984;8.548;2023-08-07T00:37:11;99845.81;;;13.20;93.98
32298;BME280;18782;48.984;8.548;2023-08-07T00:39:39;99845.78;;;13.17;95.51
32298;BME280;18782;48.984;8.548;2023-08-07T00:42:07;99848.41;;;13.20;93.75
32298;BME280;18782;48.984;8.548;2023-08-07T00:44:34;99849.34;;;13.25;94.33
32298;BME280;18782;48.984;8.548;2023-08-07T00:47:04;99854.53;;;13.25;93.63
32298;BME280;18782;48.984;8.548;2023-08-07T00:49:32;99845.09;;;13.27;94.28
32298;BME280;18782;48.984;8.548;2023-08-07T00:52:01;99853.56;;;13.17;94.16
32298;BME280;18782;48.984;8.548;2023-08-07T00:54:29;99854.34;;;13.13;94.46
32298;BME280;18782;48.984;8.548;2023-08-07T00:56:59;99849.25;;;13.19;94.26
32298;BME280;18782;48.984;8.548;2023-08-07T00:59:30;99854.50;;;13.22;93.84
32298;BME280;18782;48.984;8.548;2023-08-07T01:01:58;99857.97;;;13.23;93.40
32298;BME280;18782;48.984;8.548;2023-08-07T01:04:27;99844.19;;;13.24;92.77
32298;BME280;18782;48.984;8.548;2023-08-07T01:06:55;99854.53;;;13.25;92.55
32298;BME280;18782;48.984;8.548;2023-08-07T01:09:25;99852.69;;;13.18;92.65
32298;BME280;18782;48.984;8.548;2023-08-07T01:11:57;99858.72;;;13.19;92.40
32298;BME280;18782;48.984;8.548;2023-08-07T01:14:36;99848.47;;;13.22;92.36
32298;BME280;18782;48.984;8.548;2023-08-07T01:17:07;99856.13;;;13.17;91.82
32298;BME280;18782;48.984;8.548;2023-08-07T01:19:39;99858.72;;;13.16;92.06
32298;BME280;18782;48.984;8.548;2023-08-07T01:22:10;99859.59;;;13.19;90.27
32298;BME280;18782;48.984;8.548;2023-08-07T01:24:39;99857.00;;;13.19;92.40
32298;BME280;18782;48.984;8.548;2023-08-07T01:27:19;99851.72;;;13.09;91.80
32298;BME280;18782;48.984;8.548;2023-08-07T01:29:56;99850.97;;;13.17;91.48
32298;BME280;18782;48.984;8.548;2023-08-07T01:32:29;99864.69;;;13.13;90.43
32298;BME280;18782;48.984;8.548;2023-08-07T01:35:01;99860.31;;;13.09;90.77
32298;BME280;18782;48.984;8.548;2023-08-07T01:37:33;99862.97;;;13.12;91.19
32298;BME280;18782;48.984;8.548;2023-08-07T01:40:03;99866.41;;;13.14;90.88
32298;BME280;18782;48.984;8.548;2023-08-07T01:42:33;99865.53;;;13.12;91.49
32298;BME280;18782;48.984;8.548;2023-08-07T01:45:01;99875.09;;;13.16;90.39
32298;BME280;18782;48.984;8.548;2023-08-07T01:47:29;99878.47;;;13.12;89.93
32298;BME280;18782;48.984;8.548;2023-08-07T01:49:56;99877.56;;;13.09;90.78
32298;BME280;18782;48.984;8.548;2023-08-07T01:52:24;99877.66;;;13.16;91.26
32298;BME280;18782;48.984;8.548;2023-08-07T01:54:54;99876.75;;;13.11;91.65
32298;BME280;18782;48.984;8.548;2023-08-07T01:57:22;99876.75;;;13.14;90.55
32298;BME280;18782;48.984;8.548;2023-08-07T01:59:49;99873.31;;;13.12;89.33
32298;BME280;18782;48.984;8.548;2023-08-07T02:02:17;99875.09;;;13.16;88.02
32298;BME280;18782;48.984;8.548;2023-08-07T02:04:45;99878.47;;;13.12;88.09
32298;BME280;18782;48.984;8.548;2023-08-07T02:07:13;99881.00;;;13.07;88.05
32298;BME280;18782;48.984;8.548;2023-08-07T02:09:41;99888.75;;;13.09;88.10
32298;BME280;18782;48.984;8.548;2023-08-07T02:12:10;99873.22;;;13.07;86.78
32298;BME280;18782;48.984;8.548;2023-08-07T02:14:37;99877.53;;;13.07;89.18
32298;BME280;18782;48.984;8.548;2023-08-07T02:17:05;99880.84;;;12.98;89.66
32298;BME280;18782;48.984;8.548;2023-08-07T02:19:34;99874.81;;;12.98;89.41
32298;BME280;18782;48.984;8.548;2023-08-07T02:22:02;99885.06;;;12.92;88.86
32298;BME280;18782;48.984;8.548;2023-08-07T02:24:30;99890.25;;;12.92;88.90
32298;BME280;18782;48.984;8.548;2023-08-07T02:26:58;99890.31;;;12.95;90.15
32298;BME280;18782;48.984;8.548;2023-08-07T02:29:27;99891.97;;;12.93;89.59
32298;BME280;18782;48.984;8.548;2023-08-07T02:31:56;99895.41;;;12.92;89.28
32298;BME280;18782;48.984;8.548;2023-08-07T02:34:24;99894.56;;;12.93;89.26
32298;BME280;18782;48.984;8.548;2023-08-07T02:36:51;99898.09;;;12.99;88.59
32298;BME280;18782;48.984;8.548;2023-08-07T02:39:20;99893.72;;;12.94;89.15
32298;BME280;18782;48.984;8.548;2023-08-07T02:41:47;99907.41;;;12.87;88.68
32298;BME280;18782;48.984;8.548;2023-08-07T02:44:15;99905.59;;;12.79;89.58
32298;BME280;18782;48.984;8.548;2023-08-07T02:46:45;99902.88;;;12.73;89.97
32298;BME280;18782;48.984;8.548;2023-08-07T02:49:12;99894.31;;;12.74;90.15
32298;BME280;18782;48.984;8.548;2023-08-07T02:51:40;99892.44;;;12.66;90.04
32298;BME280;18782;48.984;8.548;2023-08-07T02:54:08;99893.31;;;12.66;90.17
32298;BME280;18782;48.984;8.548;2023-08-07T02:56:35;99898.38;;;12.60;90.20
32298;BME280;18782;48.984;8.548;2023-08-07T02:59:03;99883.81;;;12.64;90.41
32298;BME280;18782;48.984;8.548;2023-08-07T03:01:31;99894.88;;;12.55;90.64
32298;BME280;18782;48.984;8.548;2023-08-07T03:04:01;99887.13;;;12.57;91.10
32298;BME280;18782;48.984;8.548;2023-08-07T03:06:28;99892.31;;;12.57;91.15
32298;BME280;18782;48.984;8.548;2023-08-07T03:08:56;99891.44;;;12.58;91.63
32298;BME280;18782;48.984;8.548;2023-08-07T03:11:24;99896.66;;;12.59;91.74
32298;BME280;18782;48.984;8.548;2023-08-07T03:13:51;99884.44;;;12.49;92.47
32298;BME280;18782;48.984;8.548;2023-08-07T03:16:19;99887.88;;;12.48;92.00
32298;BME280;18782;48.984;8.548;2023-08-07T03:18:47;99884.38;;;12.46;92.52
32298;BME280;18782;48.984;8.548;2023-08-07T03:21:16;99896.41;;;12.44;92.76
32298;BME280;18782;48.984;8.548;2023-08-07T03:23:44;99892.03;;;12.40;92.94
32298;BME280;18782;48.984;8.548;2023-08-07T03:26:12;99899.94;;;12.49;92.13
32298;BME280;18782;48.984;8.548;2023-08-07T03:28:47;99887.88;;;12.48;91.50
32298;BME280;18782;48.984;8.548;2023-08-07T03:31:15;99889.53;;;12.43;92.05
32298;BME280;18782;48.984;8.548;2023-08-07T03:33:45;99889.56;;;12.46;92.03
32298;BME280;18782;48.984;8.548;2023-08-07T03:36:16;99893.88;;;12.47;91.83
32298;BME280;18782;48.984;8.548;2023-08-07T03:38:44;99899.88;;;12.46;92.23
32298;BME280;18782;48.984;8.548;2023-08-07T03:41:11;99896.34;;;12.41;92.55
32298;BME280;18782;48.984;8.548;2023-08-07T03:43:40;99890.31;;;12.40;92.76
32298;BME280;18782;48.984;8.548;2023-08-07T03:46:09;99911.91;;;12.44;92.85
32298;BME280;18782;48.984;8.548;2023-08-07T03:48:37;99901.63;;;12.47;92.35
32298;BME280;18782;48.984;8.548;2023-08-07T03:51:07;99903.28;;;12.43;92.19
32298;BME280;18782;48.984;8.548;2023-08-07T03:53:41;99906.91;;;12.53;91.18
32298;BME280;18782;48.984;8.548;2023-08-07T03:56:09;99905.13;;;12.52;91.41
32298;BME280;18782;48.984;8.548;2023-08-07T03:58:37;99908.66;;;12.57;91.87
32298;BME280;18782;48.984;8.548;2023-08-07T04:01:05;99911.22;;;12.54;92.25
32298;BME280;18782;48.984;8.548;2023-08-07T04:03:34;99907.03;;;12.62;90.63
32298;BME280;18782;48.984;8.548;2023-08-07T04:06:02;99910.50;;;12.64;90.42
32298;BME280;18782;48.984;8.548;2023-08-07T04:08:32;99907.03;;;12.62;91.03
32298;BME280;18782;48.984;8.548;2023-08-07T04:11:02;99901.91;;;12.65;89.89
32298;BME280;18782;48.984;8.548;2023-08-07T04:13:32;99908.75;;;12.63;90.62
32298;BME280;18782;48.984;8.548;2023-08-07T04:16:01;99907.09;;;12.65;91.12
32298;BME280;18782;48.984;8.548;2023-08-07T04:18:31;99910.53;;;12.67;90.92
32298;BME280;18782;48.984;8.548;2023-08-07T04:21:00;99915.69;;;12.64;89.89
32298;BME280;18782;48.984;8.548;2023-08-07T04:23:28;99909.69;;;12.67;90.58
32298;BME280;18782;48.984;8.548;2023-08-07T04:25:59;99917.41;;;12.65;89.86
32298;BME280;18782;48.984;8.548;2023-08-07T04:28:29;99917.44;;;12.68;90.34
32298;BME280;18782;48.984;8.548;2023-08-07T04:30:56;99926.00;;;12.64;90.76
32298;BME280;18782;48.984;8.548;2023-08-07T04:33:24;99916.69;;;12.74;90.05
32298;BME280;18782;48.984;8.548;2023-08-07T04:35:52;99931.41;;;12.79;89.46
32298;BME280;18782;48.984;8.548;2023-08-07T04:38:19;99927.06;;;12.77;90.63
32298;BME280;18782;48.984;8.548;2023-08-07T04:40:48;99928.75;;;12.75;90.29
32298;BME280;18782;48.984;8.548;2023-08-07T04:43:17;99945.28;;;12.88;88.69
32298;BME280;18782;48.984;8.548;2023-08-07T04:45:47;99934.09;;;12.89;88.59
32298;BME280;18782;48.984;8.548;2023-08-07T04:48:15;99931.53;;;12.89;89.48
32298;BME280;18782;48.984;8.548;2023-08-07T04:50:44;99943.63;;;12.90;88.98
32298;BME280;18782;48.984;8.548;2023-08-07T04:53:12;99928.13;;;12.91;88.17
32298;BME280;18782;48.984;8.548;2023-08-07T04:55:39;99935.03;;;12.92;88.46
32298;BME280;18782;48.984;8.548;2023-08-07T04:58:07;99944.66;;;13.01;90.08
32298;BME280;18782;48.984;8.548;2023-08-07T05:00:35;99937.84;;;13.07;88.08
32298;BME280;18782;48.984;8.548;2023-08-07T05:03:04;99959.28;;;13.02;86.51
32298;BME280;18782;48.984;8.548;2023-08-07T05:05:32;99950.69;;;13.03;87.30
32298;BME280;18782;48.984;8.548;2023-08-07T05:08:00;99952.56;;;13.13;87.20
32298;BME280;18782;48.984;8.548;2023-08-07T05:10:27;99962.97;;;13.16;87.01
32298;BME280;18782;48.984;8.548;2023-08-07T05:12:55;99956.03;;;13.15;86.81
32298;BME280;18782;48.984;8.548;2023-08-07T05:15:23;99955.09;;;13.10;86.51
32298;BME280;18782;48.984;8.548;2023-08-07T05:17:52;99947.44;;;13.16;86.88
32298;BME280;18782;48.984;8.548;2023-08-07T05:20:21;99955.31;;;13.24;86.01
32298;BME280;18782;48.984;8.548;2023-08-07T05:22:49;99965.69;;;13.25;86.50
32298;BME280;18782;48.984;8.548;2023-08-07T05:25:17;99961.41;;;13.27;85.91
32298;BME280;18782;48.984;8.548;2023-08-07T05:27:45;99954.47;;;13.23;85.41
32298;BME280;18782;48.984;8.548;2023-08-07T05:30:13;99964.88;;;13.28;86.45
32298;BME280;18782;48.984;8.548;2023-08-07T05:32:41;99964.00;;;13.26;86.05
32298;BME280;18782;48.984;8.548;2023-08-07T05:35:09;99964.94;;;13.32;86.72
32298;BME280;18782;48.984;8.548;2023-08-07T05:37:38;99966.81;;;13.44;86.30
32298;BME280;18782;48.984;8.548;2023-08-07T05:40:07;99972.00;;;13.46;85.19
32298;BME280;18782;48.984;8.548;2023-08-07T05:42:35;99965.94;;;13.42;86.11
32298;BME280;18782;48.984;8.548;2023-08-07T05:45:03;99970.34;;;13.51;85.70
32298;BME280;18782;48.984;8.548;2023-08-07T05:47:32;99979.00;;;13.53;85.88
32298;BME280;18782;48.984;8.548;2023-08-07T05:50:00;99973.78;;;13.50;85.37
32298;BME280;18782;48.984;8.548;2023-08-07T05:52:27;99978.16;;;13.55;85.76
32298;BME280;18782;48.984;8.548;2023-08-07T05:54:56;99998.19;;;13.70;84.79
32298;BME280;18782;48.984;8.548;2023-08-07T05:57:24;99976.53;;;13.64;84.28
32298;BME280;18782;48.984;8.548;2023-08-07T05:59:52;99986.03;;;13.66;85.30
32298;BME280;18782;48.984;8.548;2023-08-07T06:02:19;99975.75;;;13.68;83.74
32298;BME280;18782;48.984;8.548;2023-08-07T06:04:47;99987.81;;;13.70;84.34
32298;BME280;18782;48.984;8.548;2023-08-07T06:07:15;99984.25;;;13.62;85.36
32298;BME280;18782;48.984;8.548;2023-08-07T06:09:42;99991.34;;;13.74;85.58
32298;BME280;18782;48.984;8.548;2023-08-07T06:12:11;99999.88;;;13.68;85.26
32298;BME280;18782;48.984;8.548;2023-08-07T06:14:39;99999.13;;;13.77;85.20
32298;BME280;18782;48.984;8.548;2023-08-07T06:17:07;99993.13;;;13.82;85.46
32298;BME280;18782;48.984;8.548;2023-08-07T06:19:34;99998.38;;;13.86;85.58
32298;BME280;18782;48.984;8.548;2023-08-07T06:22:02;99999.38;;;13.98;85.62
32298;BME280;18782;48.984;8.548;2023-08-07T06:24:30;99999.16;;;13.81;84.77
32298;BME280;18782;48.984;8.548;2023-08-07T06:26:57;99998.28;;;13.79;85.14
32298;BME280;18782;48.984;8.548;2023-08-07T06:29:27;100007.06;;;13.91;85.61
32298;BME280;18782;48.984;8.548;2023-08-07T06:31:55;100007.69;;;13.73;85.58
32298;BME280;18782;48.984;8.548;2023-08-07T06:34:23;100000.84;;;13.78;85.47
32298;BME280;18782;48.984;8.548;2023-08-07T06:36:51;100007.91;;;13.90;84.80
32298;BME280;18782;48.984;8.548;2023-08-07T06:39:19;100000.28;;;14.02;84.16
32298;BME280;18782;48.984;8.548;2023-08-07T06:41:46;100030.53;;;14.04;82.37
32298;BME280;18782;48.984;8.548;2023-08-07T06:44:17;100008.84;;;13.96;82.75
32298;BME280;18782;48.984;8.548;2023-08-07T06:46:46;100010.75;;;14.14;82.02
32298;BME280;18782;48.984;8.548;2023-08-07T06:49:14;100014.19;;;14.13;82.20
32298;BME280;18782;48.984;8.548;2023-08-07T06:51:42;100014.38;;;14.28;81.89
32298;BME280;18782;48.984;8.548;2023-08-07T06:54:09;100016.16;;;14.32;81.48
32298;BME280;18782;48.984;8.548;2023-08-07T06:56:37;100017.81;;;14.29;82.27
32298;BME280;18782;48.984;8.548;2023-08-07T06:59:07;100013.66;;;14.42;82.54
32298;BME280;18782;48.984;8.548;2023-08-07T07:01:35;100017.19;;;14.48;81.43
32298;BME280;18782;48.984;8.548;2023-08-07T07:04:04;100017.31;;;14.59;83.29
32298;BME280;18782;48.984;8.548;2023-08-07T07:06:32;100018.38;;;14.85;83.07
32298;BME280;18782;48.984;8.548;2023-08-07T07:09:00;100023.53;;;14.82;81.19
32298;BME280;18782;48.984;8.548;2023-08-07T07:11:28;100021.81;;;14.78;80.79
32298;BME280;18782;48.984;8.548;2023-08-07T07:13:55;100026.13;;;14.78;81.11
32298;BME280;18782;48.984;8.548;2023-08-07T07:16:23;100037.16;;;14.60;80.15
32298;BME280;18782;48.984;8.548;2023-08-07T07:18:53;100012.16;;;14.64;81.62
32298;BME280;18782;48.984;8.548;2023-08-07T07:21:23;100030.34;;;14.71;81.10
32298;BME280;18782;48.984;8.548;2023-08-07T07:23:51;100047.63;;;14.69;79.10
32298;BME280;18782;48.984;8.548;2023-08-07T07:26:19;100031.06;;;14.53;80.66
32298;BME280;18782;48.984;8.548;2023-08-07T07:28:46;100038.94;;;14.63;81.18
32298;BME280;18782;48.984;8.548;2023-08-07T07:31:14;100041.56;;;14.67;80.54
32298;BME280;18782;48.984;8.548;2023-08-07T07:33:42;100041.56;;;14.70;80.31
32298;BME280;18782;48.984;8.548;2023-08-07T07:36:14;100039.00;;;14.70;80.70
32298;BME280;18782;48.984;8.548;2023-08-07T07:38:45;100054.63;;;14.82;80.85
32298;BME280;18782;48.984;8.548;2023-08-07T07:41:13;100058.19;;;14.91;78.16
32298;BME280;18782;48.984;8.548;2023-08-07T07:43:41;100047.91;;;15.00;76.63
32298;BME280;18782;48.984;8.548;2023-08-07T07:46:09;100063.50;;;15.06;74.91
32298;BME280;18782;48.984;8.548;2023-08-07T07:48:37;100061.84;;;15.17;75.92
32298;BME280;18782;48.984;8.548;2023-08-07T07:51:05;100054.03;;;15.09;75.63
32298;BME280;18782;48.984;8.548;2023-08-07T07:53:33;100072.34;;;15.32;75.53
32298;BME280;18782;48.984;8.548;2023-08-07T07:56:01;100063.63;;;15.21;73.64
32298;BME280;18782;48.984;8.548;2023-08-07T07:58:28;100067.06;;;15.20;74.53
32298;BME280;18782;48.984;8.548;2023-08-07T08:00:56;100106.94;;;15.37;73.30
32298;BME280;18782;48.984;8.548;2023-08-07T08:03:24;100078.34;;;15.27;73.08
32298;BME280;18782;48.984;8.548;2023-08-07T08:05:52;100070.59;;;15.34;71.33
32298;BME280;18782;48.984;8.548;2023-08-07T08:08:20;100079.13;;;15.15;71.79
32298;BME280;18782;48.984;8.548;2023-08-07T08:10:47;100075.75;;;15.28;71.90
32298;BME280;18782;48.984;8.548;2023-08-07T08:13:17;100071.47;;;15.33;71.36
32298;BME280;18782;48.984;8.548;2023-08-07T08:15:45;100063.09;;;15.67;70.66
32298;BME280;18782;48.984;8.548;2023-08-07T08:18:12;100070.06;;;15.77;68.98
32298;BME280;18782;48.984;8.548;2023-08-07T08:20:40;100073.56;;;15.83;70.07
32298;BME280;18782;48.984;8.548;2023-08-07T08:23:08;100089.06;;;15.76;68.65
32298;BME280;18782;48.984;8.548;2023-08-07T08:25:35;100081.34;;;15.83;68.69
32298;BME280;18782;48.984;8.548;2023-08-07T08:28:03;100107.06;;;15.54;66.02
32298;BME280;18782;48.984;8.548;2023-08-07T08:30:33;100084.69;;;15.64;67.96
32298;BME280;18782;48.984;8.548;2023-08-07T08:33:00;100076.94;;;15.76;67.39
32298;BME280;18782;48.984;8.548;2023-08-07T08:35:28;100089.94;;;15.73;66.97
32298;BME280;18782;48.984;8.548;2023-08-07T08:37:56;100086.53;;;15.86;66.80
32298;BME280;18782;48.984;8.548;2023-08-07T08:40:24;100095.25;;;16.01;65.52
32298;BME280;18782;48.984;8.548;2023-08-07T08:42:53;100106.44;;;15.83;64.85
32298;BME280;18782;48.984;8.548;2023-08-07T08:45:25;100099.50;;;15.82;66.39
32298;BME280;18782;48.984;8.548;2023-08-07T08:48:00;100089.19;;;15.94;66.49
32298;BME280;18782;48.984;8.548;2023-08-07T08:50:29;100096.13;;;15.98;65.45
32298;BME280;18782;48.984;8.548;2023-08-07T08:52:57;100087.56;;;16.28;64.43
32298;BME280;18782;48.984;8.548;2023-08-07T08:55:26;100083.28;;;16.36;63.56
32298;BME280;18782;48.984;8.548;2023-08-07T08:57:54;100103.25;;;16.50;62.78
32298;BME280;18782;48.984;8.548;2023-08-07T09:00:23;100117.06;;;16.35;62.75
32298;BME280;18782;48.984;8.548;2023-08-07T09:02:52;100103.22;;;16.43;62.61
32298;BME280;18782;48.984;8.548;2023-08-07T09:05:21;100078.94;;;16.34;63.24
32298;BME280;18782;48.984;8.548;2023-08-07T09:07:49;100086.81;;;16.63;62.76
32298;BME280;18782;48.984;8.548;2023-08-07T09:10:18;100096.34;;;16.56;62.42
32298;BME280;18782;48.984;8.548;2023-08-07T09:12:53;100099.72;;;16.32;61.01
32298;BME280;18782;48.984;8.548;2023-08-07T09:15:21;100093.72;;;16.58;61.87
32298;BME280;18782;48.984;8.548;2023-08-07T09:17:51;100098.06;;;16.51;61.08
32298;BME280;18782;48.984;8.548;2023-08-07T09:20:19;100091.91;;;16.26;61.22
32298;BME280;18782;48.984;8.548;2023-08-07T09:22:48;100097.09;;;16.26;60.86
32298;BME280;18782;48.984;8.548;2023-08-07T09:25:26;100093.69;;;16.36;61.30
32298;BME280;18782;48.984;8.548;2023-08-07T09:27:54;100105.84;;;16.54;61.66
32298;BME280;18782;48.984;8.548;2023-08-07T09:30:26;100102.41;;;16.64;60.70
32298;BME280;18782;48.984;8.548;2023-08-07T09:32:56;100100.66;;;16.65;60.55
32298;BME280;18782;48.984;8.548;2023-08-07T09:35:24;100103.28;;;16.65;60.60
32298;BME280;18782;48.984;8.548;2023-08-07T09:37:53;100110.31;;;17.04;60.26
32298;BME280;18782;48.984;8.548;2023-08-07T09:40:21;100107.72;;;17.15;57.77
32298;BME280;18782;48.984;8.548;2023-08-07T09:42:50;100112.06;;;17.30;58.91
32298;BME280;18782;48.984;8.548;2023-08-07T09:45:19;100113.78;;;17.26;57.16
32298;BME280;18782;48.984;8.548;2023-08-07T09:47:56;100115.53;;;17.33;57.85
32298;BME280;18782;48.984;8.548;2023-08-07T09:50:24;100104.19;;;17.71;57.07
32298;BME280;18782;48.984;8.548;2023-08-07T09:52:55;100109.41;;;17.74;56.00
32298;BME280;18782;48.984;8.548;2023-08-07T09:55:24;100111.09;;;17.93;54.52
32298;BME280;18782;48.984;8.548;2023-08-07T09:57:52;100125.03;;;17.63;54.48
32298;BME280;18782;48.984;8.548;2023-08-07T10:00:21;100098.16;;;17.46;55.29
32298;BME280;18782;48.984;8.548;2023-08-07T10:02:50;100104.22;;;17.31;55.95
32298;BME280;18782;48.984;8.548;2023-08-07T10:05:18;100106.81;;;17.33;55.59
32298;BME280;18782;48.984;8.548;2023-08-07T10:07:47;100093.84;;;17.28;54.95
32298;BME280;18782;48.984;8.548;2023-08-07T10:10:17;100099.03;;;17.46;55.92
32298;BME280;18782;48.984;8.548;2023-08-07T10:12:44;100105.06;;;17.79;56.83
32298;BME280;18782;48.984;8.548;2023-08-07T10:15:14;100094.66;;;17.82;55.42
32298;BME280;18782;48.984;8.548;2023-08-07T10:17:42;100092.00;;;17.99;55.03
32298;BME280;18782;48.984;8.548;2023-08-07T10:20:11;100088.50;;;18.05;55.24
32298;BME280;18782;48.984;8.548;2023-08-07T10:22:40;100089.28;;;18.23;55.08
32298;BME280;18782;48.984;8.548;2023-08-07T10:25:08;100088.31;;;18.44;53.66
32298;BME280;18782;48.984;8.548;2023-08-07T10:27:40;100088.41;;;18.29;53.54
32298;BME280;18782;48.984;8.548;2023-08-07T10:30:11;100094.31;;;18.60;52.92
32298;BME280;18782;48.984;8.548;2023-08-07T10:32:40;100093.44;;;18.60;53.51
32298;BME280;18782;48.984;8.548;2023-08-07T10:35:09;100084.66;;;18.79;52.80
32298;BME280;18782;48.984;8.548;2023-08-07T10:37:41;100093.19;;;19.06;51.78
32298;BME280;18782;48.984;8.548;2023-08-07T10:40:10;100093.25;;;18.96;51.88
32298;BME280;18782;48.984;8.548;2023-08-07T10:43:11;100090.78;;;18.75;50.91
32298;BME280;18782;48.984;8.548;2023-08-07T10:45:39;100094.19;;;18.83;52.29
32298;BME280;18782;48.984;8.548;2023-08-07T10:48:07;100089.16;;;18.54;52.55
32298;BME280;18782;48.984;8.548;2023-08-07T10:50:49;100091.69;;;18.62;53.95
32298;BME280;18782;48.984;8.548;2023-08-07T10:53:28;100098.75;;;18.41;52.76
32298;BME280;18782;48.984;8.548;2023-08-07T10:55:56;100095.38;;;18.21;53.84
32298;BME280;18782;48.984;8.548;2023-08-07T10:58:30;100094.53;;;18.17;54.61
32298;BME280;18782;48.984;8.548;2023-08-07T11:03:48;100101.41;;;18.31;54.89
32298;BME280;18782;48.984;8.548;2023-08-07T11:06:16;100098.81;;;18.26;53.69
32298;BME280;18782;48.984;8.548;2023-08-07T11:08:44;100106.63;;;18.31;53.95
32298;BME280;18782;48.984;8.548;2023-08-07T11:11:12;100107.53;;;18.28;53.62
32298;BME280;18782;48.984;8.548;2023-08-07T11:13:41;100105.78;;;18.21;55.17
32298;BME280;18782;48.984;8.548;2023-08-07T11:16:09;100113.66;;;18.12;54.80
32298;BME280;18782;48.984;8.548;2023-08-07T11:18:37;100131.94;;;17.96;55.97
32298;BME280;18782;48.984;8.548;2023-08-07T11:21:07;100118.06;;;17.97;56.72
32298;BME280;18782;48.984;8.548;2023-08-07T11:23:37;100118.94;;;17.70;55.99
32298;BME280;18782;48.984;8.548;2023-08-07T11:26:04;100116.34;;;17.66;56.74
32298;BME280;18782;48.984;8.548;2023-08-07T11:28:32;100117.22;;;17.59;56.27
32298;BME280;18782;48.984;8.548;2023-08-07T11:31:02;100109.44;;;17.50;57.08
32298;BME280;18782;48.984;8.548;2023-08-07T11:33:30;100114.63;;;17.46;57.75
32298;BME280;18782;48.984;8.548;2023-08-07T11:35:59;100117.22;;;17.53;58.07
32298;BME280;18782;48.984;8.548;2023-08-07T11:38:31;100122.44;;;17.48;57.07
32298;BME280;18782;48.984;8.548;2023-08-07T11:41:00;100121.56;;;17.47;57.54
32298;BME280;18782;48.984;8.548;2023-08-07T11:43:28;100112.03;;;17.57;58.64
32298;BME280;18782;48.984;8.548;2023-08-07T11:45:58;100124.16;;;17.43;57.63
32298;BME280;18782;48.984;8.548;2023-08-07T11:48:30;100120.72;;;17.45;57.27
32298;BME280;18782;48.984;8.548;2023-08-07T11:50:59;100116.34;;;17.54;58.28
32298;BME280;18782;48.984;8.548;2023-08-07T11:53:28;100125.91;;;17.48;58.93
32298;BME280;18782;48.984;8.548;2023-08-07T11:55:58;100119.84;;;17.40;58.76
32298;BME280;18782;48.984;8.548;2023-08-07T11:58:27;100107.69;;;17.52;59.52
32298;BME280;18782;48.984;8.548;2023-08-07T12:00:55;100109.41;;;17.65;59.27
32298;BME280;18782;48.984;8.548;2023-08-07T12:03:24;100111.13;;;17.72;58.55
32298;BME280;18782;48.984;8.548;2023-08-07T12:05:55;100109.41;;;17.77;59.14
32298;BME280;18782;48.984;8.548;2023-08-07T12:08:23;100107.66;;;17.85;59.40
32298;BME280;18782;48.984;8.548;2023-08-07T12:10:53;100100.69;;;17.95;58.77
32298;BME280;18782;48.984;8.548;2023-08-07T12:13:24;100102.41;;;18.07;58.66
32298;BME280;18782;48.984;8.548;2023-08-07T12:15:53;100097.13;;;18.22;58.88
32298;BME280;18782;48.984;8.548;2023-08-07T12:18:22;100102.31;;;18.25;57.15
32298;BME280;18782;48.984;8.548;2023-08-07T12:20:50;100099.66;;;18.34;56.54
32298;BME280;18782;48.984;8.548;2023-08-07T12:23:20;100102.19;;;18.54;56.17
32298;BME280;18782;48.984;8.548;2023-08-07T12:25:48;100096.81;;;18.83;56.02
32298;BME280;18782;48.984;8.548;2023-08-07T12:28:16;100094.00;;;19.12;55.10
32298;BME280;18782;48.984;8.548;2023-08-07T12:30:45;100103.25;;;19.45;54.23
32298;BME280;18782;48.984;8.548;2023-08-07T12:33:14;100088.34;;;20.35;51.95
32298;BME280;18782;48.984;8.548;2023-08-07T12:35:42;100098.50;;;20.59;48.97
32298;BME280;18782;48.984;8.548;2023-08-07T12:38:10;100104.91;;;20.97;47.65
32298;BME280;18782;48.984;8.548;2023-08-07T12:40:41;100086.00;;;20.80;47.26
32298;BME280;18782;48.984;8.548;2023-08-07T12:43:10;100087.78;;;20.76;48.63
32298;BME280;18782;48.984;8.548;2023-08-07T12:45:38;100092.28;;;20.67;48.82
32298;BME280;18782;48.984;8.548;2023-08-07T12:48:08;100092.28;;;20.67;48.87
32298;BME280;18782;48.984;8.548;2023-08-07T12:50:36;100093.25;;;20.63;47.95
32298;BME280;18782;48.984;8.548;2023-08-07T12:53:04;100093.81;;;20.81;49.20
32298;BME280;18782;48.984;8.548;2023-08-07T12:55:32;100092.41;;;22.15;45.63
32298;BME280;18782;48.984;8.548;2023-08-07T12:58:01;100100.00;;;22.67;43.87
32298;BME280;18782;48.984;8.548;2023-08-07T13:04:35;100097.06;;;23.18;43.60
32298;BME280;18782;48.984;8.548;2023-08-07T13:07:03;100099.81;;;23.82;41.20
32298;BME280;18782;48.984;8.548;2023-08-07T13:09:31;100093.97;;;23.03;41.33